Time;durP1;ratioP1;P1;durP2;ratioP2;P2;SDS_P1;SDS_P2;PMS_P1;PMS_P2;Temp;Humidity;BMP_temperature;BMP_pressure;BME280_temperature;BME280_humidity;BME280_pressure;Samples;Min_cycle;Max_cycle;Signal;HPM_P1;HPM_P2
2022/10/16 00:04:55;;;;;;;0.70;0.70;;;;;;;-146.19;100.00;65364.44;10373805;28;20046;-63
2022/10/16 00:10:14;;;;;;;0.60;0.60;;;;;;;-146.19;100.00;65364.44;10386509;28;20050;-62
2022/10/16 00:15:39;;;;;;;0.90;0.70;;;;;;;-146.19;100.00;65364.44;10386054;28;20049;-63
2022/10/16 00:21:06;;;;;;;0.70;0.70;;;;;;;-146.19;100.00;65364.44;10387434;28;20037;-63
2022/10/16 00:26:28;;;;;;;0.80;0.80;;;;;;;-146.19;100.00;65364.44;10385476;28;20044;-62
2022/10/16 00:31:47;;;;;;;0.80;0.80;;;;;;;-146.19;100.00;65364.44;10380110;28;20058;-63
2022/10/16 00:37:07;;;;;;;0.70;0.70;;;;;;;-146.19;100.00;65364.44;10385248;28;20486;-63
2022/10/16 00:42:26;;;;;;;0.63;0.63;;;;;;;-146.19;100.00;65364.44;10386526;28;20042;-63
2022/10/16 00:47:48;;;;;;;0.52;0.52;;;;;;;-146.19;100.00;65364.44;10380350;28;20452;-62
2022/10/16 00:53:08;;;;;;;0.70;0.70;;;;;;;-146.19;100.00;65364.44;10367831;28;20100;-63
2022/10/16 00:58:28;;;;;;;0.60;0.60;;;;;;;-146.19;100.00;65364.44;10389288;28;20054;-62
2022/10/16 01:03:47;;;;;;;0.77;0.77;;;;;;;-146.19;100.00;65364.44;10395177;28;20045;-63
2022/10/16 01:09:13;;;;;;;0.60;0.60;;;;;;;-146.19;100.00;65364.44;10393014;28;20049;-62
2022/10/16 01:14:41;;;;;;;0.60;0.60;;;;;;;-146.19;100.00;65364.44;10394739;28;20046;-62
2022/10/16 01:20:11;;;;;;;0.70;0.70;;;;;;;-146.19;100.00;65364.44;10394679;28;20053;-62
2022/10/16 01:25:55;;;;;;;0.73;0.73;;;;;;;-146.19;100.00;65364.44;10392249;28;20046;-63
2022/10/16 01:31:18;;;;;;;0.50;0.50;;;;;;;-146.19;100.00;65364.44;10400492;28;20045;-61
2022/10/16 01:36:57;;;;;;;0.60;0.60;;;;;;;-146.19;100.00;65364.44;10377167;28;20076;-62
2022/10/16 01:42:29;;;;;;;0.50;0.50;;;;;;;-146.19;100.00;65364.44;10363654;28;20054;-62
2022/10/16 01:47:49;;;;;;;0.52;0.52;;;;;;;-146.19;100.00;65364.44;10389549;28;20053;-62
2022/10/16 01:53:12;;;;;;;0.70;0.70;;;;;;;-146.19;100.00;65364.44;10376462;28;20486;-63
2022/10/16 01:58:34;;;;;;;0.50;0.50;;;;;;;-146.19;100.00;65364.44;10351895;28;20066;-62
2022/10/16 02:03:56;;;;;;;0.50;0.50;;;;;;;-146.19;100.00;65364.44;10395803;28;20050;-62
2022/10/16 02:09:16;;;;;;;0.55;0.55;;;;;;;-146.19;100.00;65364.44;10390547;28;20038;-62
2022/10/16 02:14:38;;;;;;;0.70;0.70;;;;;;;-146.19;100.00;65364.44;10377579;28;20053;-62
2022/10/16 02:19:58;;;;;;;0.60;0.60;;;;;;;-146.19;100.00;65364.44;10394415;28;20034;-63
2022/10/16 02:25:23;;;;;;;0.57;0.57;;;;;;;-146.19;100.00;65364.44;10376889;28;20042;-63
2022/10/16 02:30:57;;;;;;;0.60;0.60;;;;;;;-146.19;100.00;65364.44;10392145;28;20104;-63
2022/10/16 02:36:17;;;;;;;0.60;0.60;;;;;;;-146.19;100.00;65364.44;10361297;28;20050;-62
2022/10/16 02:41:36;;;;;;;0.55;0.55;;;;;;;-146.19;100.00;65364.44;10389391;28;20056;-60
2022/10/16 02:46:56;;;;;;;0.52;0.52;;;;;;;-146.19;100.00;65364.44;10396934;28;20053;-63
2022/10/16 02:52:15;;;;;;;0.50;0.50;;;;;;;-146.19;100.00;65364.44;10388701;28;20054;-63
2022/10/16 02:57:36;;;;;;;0.55;0.55;;;;;;;-146.19;100.00;65364.44;10377894;28;20046;-63
2022/10/16 03:02:56;;;;;;;0.52;0.52;;;;;;;-146.19;100.00;65364.44;10388317;28;20077;-63
2022/10/16 03:08:15;;;;;;;0.50;0.50;;;;;;;-146.19;100.00;65364.44;10387464;28;20121;-63
2022/10/16 03:13:35;;;;;;;0.55;0.55;;;;;;;-146.19;100.00;65364.44;10388210;28;20049;-62
2022/10/16 03:18:54;;;;;;;0.50;0.50;;;;;;;-146.19;100.00;65364.44;10395581;28;20041;-62
2022/10/16 03:24:13;;;;;;;0.50;0.50;;;;;;;-146.19;100.00;65364.44;10387956;28;20053;-62
2022/10/16 03:29:32;;;;;;;0.55;0.55;;;;;;;-146.19;100.00;65364.44;10390591;28;20049;-62
2022/10/16 03:34:54;;;;;;;3.17;0.60;;;;;;;-146.19;100.00;65364.44;10382308;28;20108;-62
2022/10/16 03:40:14;;;;;;;0.45;0.45;;;;;;;-146.19;100.00;65364.44;10387215;28;20053;-62
2022/10/16 03:45:33;;;;;;;0.40;0.40;;;;;;;-146.19;100.00;65364.44;10394795;28;20112;-63
2022/10/16 03:50:53;;;;;;;0.47;0.47;;;;;;;-146.19;100.00;65364.44;10386829;28;20061;-62
2022/10/16 03:56:12;;;;;;;0.55;0.50;;;;;;;-146.19;100.00;65364.44;10386732;28;20050;-62
2022/10/16 04:01:32;;;;;;;0.45;0.45;;;;;;;-146.19;100.00;65364.44;10373653;28;20050;-62
2022/10/16 04:06:51;;;;;;;0.40;0.40;;;;;;;-146.19;100.00;65364.44;10386520;28;20041;-61
2022/10/16 04:12:10;;;;;;;0.50;0.50;;;;;;;-146.19;100.00;65364.44;10378473;28;20042;-60
2022/10/16 04:17:29;;;;;;;0.55;0.55;;;;;;;-146.19;100.00;65364.44;10388189;28;20042;-62
2022/10/16 04:22:49;;;;;;;0.50;0.50;;;;;;;-146.19;100.00;65364.44;10385907;28;20065;-62
2022/10/16 04:28:08;;;;;;;0.50;0.50;;;;;;;-146.19;100.00;65364.44;10385813;28;20042;-62
2022/10/16 04:33:27;;;;;;;0.35;0.35;;;;;;;-146.19;100.00;65364.44;10371647;28;20509;-63
2022/10/16 04:38:46;;;;;;;0.47;0.47;;;;;;;-146.19;100.00;65364.44;10385580;28;20049;-62
2022/10/16 04:44:06;;;;;;;0.50;0.50;;;;;;;-146.19;100.00;65364.44;10379780;28;20524;-62
2022/10/16 04:49:25;;;;;;;0.40;0.40;;;;;;;-146.19;100.00;65364.44;10374633;28;20489;-63
2022/10/16 04:54:45;;;;;;;0.50;0.50;;;;;;;-146.19;100.00;65364.44;10370456;28;20038;-63
2022/10/16 05:00:05;;;;;;;0.50;0.50;;;;;;;-146.19;100.00;65364.44;10374588;28;20100;-62
2022/10/16 05:05:25;;;;;;;0.40;0.40;;;;;;;-146.19;100.00;65364.44;10385036;28;20490;-62
2022/10/16 05:10:44;;;;;;;0.40;0.40;;;;;;;-146.19;100.00;65364.44;10384885;28;20165;-62
2022/10/16 05:16:04;;;;;;;0.55;0.55;;;;;;;-146.19;100.00;65364.44;10389569;28;20092;-63
2022/10/16 05:21:23;;;;;;;0.50;0.50;;;;;;;-146.19;100.00;65364.44;10384779;28;20053;-62
2022/10/16 05:26:43;;;;;;;0.50;0.50;;;;;;;-146.19;100.00;65364.44;10356258;28;20058;-62
2022/10/16 05:32:02;;;;;;;0.52;0.52;;;;;;;-146.19;100.00;65364.44;10388486;28;20045;-63
2022/10/16 05:37:22;;;;;;;0.60;0.60;;;;;;;-146.19;100.00;65364.44;10372893;28;20053;-61
2022/10/16 05:42:42;;;;;;;0.50;0.50;;;;;;;-146.19;100.00;65364.44;10401532;28;20049;-62
2022/10/16 05:48:01;;;;;;;0.50;0.50;;;;;;;-146.19;100.00;65364.44;10391879;28;20053;-63
2022/10/16 05:53:25;;;;;;;0.55;0.55;;;;;;;-146.19;100.00;65364.44;10384930;28;20100;-63
2022/10/16 05:58:44;;;;;;;0.60;0.60;;;;;;;-146.19;100.00;65364.44;10390758;28;20049;-62
2022/10/16 06:04:04;;;;;;;0.50;0.50;;;;;;;-146.19;100.00;65364.44;10390792;28;20099;-63
2022/10/16 06:09:23;;;;;;;0.47;0.47;;;;;;;-146.19;100.00;65364.44;10391088;28;20486;-63
2022/10/16 06:14:43;;;;;;;0.40;0.40;;;;;;;-146.19;100.00;65364.44;10395487;28;20046;-62
2022/10/16 06:20:02;;;;;;;0.40;0.40;;;;;;;-146.19;100.00;65364.44;10381712;28;20104;-63
2022/10/16 06:25:21;;;;;;;0.52;0.52;;;;;;;-146.19;100.00;65364.44;10372694;28;20042;-62
2022/10/16 06:30:43;;;;;;;0.35;0.35;;;;;;;-146.19;100.00;65364.44;10392605;28;20202;-62
2022/10/16 06:36:05;;;;;;;0.45;0.45;;;;;;;-146.19;100.00;65364.44;10390474;28;20048;-63
2022/10/16 06:41:25;;;;;;;0.50;0.50;;;;;;;-146.19;100.00;65364.44;10390968;28;20048;-63
2022/10/16 06:46:44;;;;;;;0.40;0.40;;;;;;;-146.19;100.00;65364.44;10389247;28;20158;-61
2022/10/16 06:52:04;;;;;;;0.40;0.40;;;;;;;-146.19;100.00;65364.44;10388844;28;20096;-63
2022/10/16 06:57:24;;;;;;;0.52;0.52;;;;;;;-146.19;100.00;65364.44;10394455;28;20050;-63
2022/10/16 07:02:43;;;;;;;0.50;0.50;;;;;;;-146.19;100.00;65364.44;10388403;28;20103;-62
2022/10/16 07:08:05;;;;;;;0.43;0.43;;;;;;;-146.19;100.00;65364.44;10388698;28;20402;-63
2022/10/16 07:13:24;;;;;;;0.40;0.40;;;;;;;-146.19;100.00;65364.44;10393131;28;20054;-62
2022/10/16 07:18:45;;;;;;;0.40;0.40;;;;;;;-146.19;100.00;65364.44;10384238;28;20437;-62
2022/10/16 07:24:10;;;;;;;0.57;0.57;;;;;;;-146.19;100.00;65364.44;10390333;28;20049;-63
2022/10/16 07:29:29;;;;;;;0.45;0.45;;;;;;;-146.19;100.00;65364.44;10377608;28;20048;-63
2022/10/16 07:34:49;;;;;;;0.47;0.47;;;;;;;-146.19;100.00;65364.44;10374457;28;20054;-63
2022/10/16 07:40:08;;;;;;;0.50;0.50;;;;;;;-146.19;100.00;65364.44;10400069;28;20034;-63
2022/10/16 07:45:28;;;;;;;0.50;0.50;;;;;;;-146.19;100.00;65364.44;10387443;28;20054;-62
2022/10/16 07:50:47;;;;;;;0.40;0.40;;;;;;;-146.19;100.00;65364.44;10387083;28;20038;-62
2022/10/16 07:56:07;;;;;;;0.40;0.40;;;;;;;-146.19;100.00;65364.44;10388590;28;20053;-63
2022/10/16 08:01:26;;;;;;;0.55;0.55;;;;;;;-146.19;100.00;65364.44;10371181;28;20103;-62
2022/10/16 08:06:46;;;;;;;0.50;0.50;;;;;;;-146.19;100.00;65364.44;10373746;28;20057;-63
2022/10/16 08:12:05;;;;;;;0.40;0.40;;;;;;;-146.19;100.00;65364.44;10379521;28;20092;-63
2022/10/16 08:17:25;;;;;;;0.40;0.40;;;;;;;-146.19;100.00;65364.44;10373212;28;20073;-63
2022/10/16 08:22:44;;;;;;;0.55;0.55;;;;;;;-146.19;100.00;65364.44;10387750;28;20072;-62
2022/10/16 08:28:06;;;;;;;0.40;0.40;;;;;;;-146.19;100.00;65364.44;10385515;28;20033;-63
2022/10/16 08:33:25;;;;;;;0.50;0.50;;;;;;;-146.19;100.00;65364.44;10385984;28;20041;-62
2022/10/16 08:38:47;;;;;;;0.60;0.60;;;;;;;-146.19;100.00;65364.44;10393441;28;20101;-63
2022/10/16 08:44:22;;;;;;;0.55;0.55;;;;;;;-146.19;100.00;65364.44;10385933;28;20125;-63
2022/10/16 08:49:58;;;;;;;0.30;0.30;;;;;;;-146.19;100.00;65364.44;10385985;28;20038;-62
2022/10/16 08:55:46;;;;;;;0.45;0.45;;;;;;;-146.19;100.00;65364.44;10370511;28;20540;-62
2022/10/16 09:01:12;;;;;;;0.47;0.47;;;;;;;-146.19;100.00;65364.44;10369569;28;20058;-62
2022/10/16 09:06:44;;;;;;;0.40;0.40;;;;;;;-146.19;100.00;65364.44;10375360;28;20057;-62
2022/10/16 09:12:34;;;;;;;0.40;0.40;;;;;;;-146.19;100.00;65364.44;10379312;28;20061;-63
2022/10/16 09:18:18;;;;;;;0.30;0.30;;;;;;;-146.19;100.00;65364.44;10391750;28;20063;-62
2022/10/16 09:23:38;;;;;;;0.50;0.50;;;;;;;-146.19;100.00;65364.44;10382947;28;20054;-62
2022/10/16 09:28:57;;;;;;;0.40;0.40;;;;;;;-146.19;100.00;65364.44;10379939;28;20058;-63
2022/10/16 09:34:34;;;;;;;0.30;0.30;;;;;;;-146.19;100.00;65364.44;10392537;28;20050;-63
2022/10/16 09:39:55;;;;;;;0.50;0.50;;;;;;;-146.19;100.00;65364.44;10405294;28;20041;-62
2022/10/16 09:45:23;;;;;;;0.40;0.40;;;;;;;-146.19;100.00;65364.44;10385190;28;20485;-62
2022/10/16 09:50:42;;;;;;;0.40;0.40;;;;;;;-146.19;100.00;65364.44;10388634;28;20485;-62
2022/10/16 09:56:03;;;;;;;0.40;0.40;;;;;;;-146.19;100.00;65364.44;10389449;28;20050;-62
2022/10/16 10:01:28;;;;;;;0.38;0.38;;;;;;;-146.19;100.00;65364.44;10366781;28;20084;-62
2022/10/16 10:06:55;;;;;;;0.30;0.30;;;;;;;-146.19;100.00;65364.44;10374458;28;20033;-63
2022/10/16 10:12:26;;;;;;;0.30;0.30;;;;;;;-146.19;100.00;65364.44;10391018;28;20038;-62
2022/10/16 10:17:49;;;;;;;0.35;0.35;;;;;;;-146.19;100.00;65364.44;10375879;28;20134;-63
2022/10/16 10:23:26;;;;;;;0.38;0.38;;;;;;;-146.19;100.00;65364.44;10382342;28;20111;-62
2022/10/16 10:28:54;;;;;;;0.40;0.40;;;;;;;-146.19;100.00;65364.44;10390523;28;20042;-62
2022/10/16 10:34:35;;;;;;;0.30;0.30;;;;;;;-146.19;100.00;65364.44;10390124;28;20042;-62
2022/10/16 10:40:01;;;;;;;0.40;0.40;;;;;;;-146.19;100.00;65364.44;10397468;28;20038;-62
2022/10/16 10:45:28;;;;;;;0.45;0.45;;;;;;;-146.19;100.00;65364.44;10389863;28;20053;-63
2022/10/16 10:51:10;;;;;;;0.40;0.40;;;;;;;-146.19;100.00;65364.44;10389635;28;20042;-60
2022/10/16 10:56:44;;;;;;;0.40;0.40;;;;;;;-146.19;100.00;65364.44;10371790;28;20037;-62
2022/10/16 11:02:41;;;;;;;0.43;0.43;;;;;;;-146.19;100.00;65364.44;10373740;28;20120;-62
2022/10/16 11:08:21;;;;;;;0.40;0.40;;;;;;;-146.19;100.00;65364.44;10392541;28;20052;-63
2022/10/16 11:13:55;;;;;;;0.30;0.30;;;;;;;-146.19;100.00;65364.44;10384784;28;20034;-63
2022/10/16 11:19:33;;;;;;;0.40;0.40;;;;;;;-146.19;100.00;65364.44;10388593;28;20041;-63
2022/10/16 11:25:16;;;;;;;0.40;0.40;;;;;;;-146.19;100.00;65364.44;10401196;28;20389;-63
2022/10/16 11:30:46;;;;;;;0.40;0.40;;;;;;;-146.19;100.00;65364.44;10372272;28;20042;-63
2022/10/16 11:36:15;;;;;;;0.40;0.40;;;;;;;-146.19;100.00;65364.44;10387730;28;20042;-63
2022/10/16 11:41:35;;;;;;;;;;;;;;;-146.19;100.00;65364.44;10390459;28;20497;-62
2022/10/16 11:47:04;;;;;;;0.40;0.40;;;;;;;-146.19;100.00;65364.44;10372456;28;20343;-63
2022/10/16 11:52:28;;;;;;;0.30;0.30;;;;;;;-146.19;100.00;65364.44;10388629;28;20042;-61
2022/10/16 11:57:52;;;;;;;0.50;0.40;;;;;;;-146.19;100.00;65364.44;10378878;28;20042;-62
2022/10/16 12:03:14;;;;;;;0.32;0.32;;;;;;;-146.19;100.00;65364.44;10371444;28;20049;-62
2022/10/16 12:08:34;;;;;;;0.63;0.50;;;;;;;-146.19;100.00;65364.44;10392647;28;20041;-62
2022/10/16 12:14:18;;;;;;;0.40;0.40;;;;;;;-146.19;100.00;65364.44;10374637;28;20497;-62
2022/10/16 12:19:38;;;;;;;0.40;0.40;;;;;;;-146.19;100.00;65364.44;10373429;28;20053;-63
2022/10/16 12:24:57;;;;;;;0.50;0.50;;;;;;;-146.19;100.00;65364.44;10392682;28;20041;-62
2022/10/16 12:30:22;;;;;;;0.30;0.30;;;;;;;-146.19;100.00;65364.44;10378709;28;20053;-63
2022/10/16 12:35:45;;;;;;;0.47;0.47;;;;;;;-146.19;100.00;65364.44;10371088;28;20044;-61
2022/10/16 12:41:10;;;;;;;0.30;0.30;;;;;;;-146.19;100.00;65364.44;10375068;28;20127;-63
2022/10/16 12:46:29;;;;;;;0.40;0.40;;;;;;;-146.19;100.00;65364.44;10371299;28;20057;-62
2022/10/16 12:51:49;;;;;;;0.30;0.30;;;;;;;-146.19;100.00;65364.44;10385504;28;20410;-63
2022/10/16 12:57:45;;;;;;;0.40;0.40;;;;;;;-146.19;100.00;65364.44;10385431;28;20402;-62
2022/10/16 13:03:27;;;;;;;0.40;0.40;;;;;;;-146.19;100.00;65364.44;10369918;28;20050;-63
2022/10/16 13:08:58;;;;;;;0.40;0.40;;;;;;;-146.19;100.00;65364.44;10375663;28;20053;-61
2022/10/16 13:15:05;;;;;;;0.28;0.28;;;;;;;-146.19;100.00;65364.44;10376237;28;20058;-62
2022/10/16 13:20:53;;;;;;;0.40;0.40;;;;;;;-146.19;100.00;65364.44;10341178;28;20112;-62
2022/10/16 13:26:12;;;;;;;0.22;0.22;;;;;;;-146.19;100.00;65364.44;10361729;28;20053;-62
2022/10/16 13:31:33;;;;;;;0.47;0.47;;;;;;;-146.19;100.00;65364.44;10385018;28;20053;-62
2022/10/16 13:36:53;;;;;;;0.30;0.30;;;;;;;-146.19;100.00;65364.44;10384485;28;20049;-61
2022/10/16 13:42:23;;;;;;;0.40;0.40;;;;;;;-146.19;100.00;65364.44;10380210;28;20076;-62
2022/10/16 13:47:43;;;;;;;0.30;0.30;;;;;;;-146.19;100.00;65364.44;10384408;28;20092;-63
2022/10/16 13:53:06;;;;;;;0.30;0.30;;;;;;;-146.19;100.00;65364.44;10390519;28;20520;-63
2022/10/16 13:58:26;;;;;;;0.40;0.40;;;;;;;-146.19;100.00;65364.44;10388200;28;20498;-62
2022/10/16 14:03:46;;;;;;;0.30;0.30;;;;;;;-146.19;100.00;65364.44;10387873;28;20052;-62
2022/10/16 14:09:07;;;;;;;0.38;0.38;;;;;;;-146.19;100.00;65364.44;10390784;28;20528;-62
2022/10/16 14:14:50;;;;;;;0.40;0.40;;;;;;;-146.19;100.00;65364.44;10379857;28;20053;-62
2022/10/16 14:20:15;;;;;;;0.40;0.40;;;;;;;-146.19;100.00;65364.44;10391182;28;20084;-59
2022/10/16 14:25:35;;;;;;;0.40;0.40;;;;;;;-146.19;100.00;65364.44;10367298;28;20057;-63
2022/10/16 14:30:57;;;;;;;0.40;0.40;;;;;;;-146.19;100.00;65364.44;10376625;28;20046;-62
2022/10/16 14:36:18;;;;;;;0.30;0.30;;;;;;;-146.19;100.00;65364.44;10382571;28;20045;-62
2022/10/16 14:41:44;;;;;;;0.35;0.35;;;;;;;-146.19;100.00;65364.44;10376545;28;20061;-62
2022/10/16 14:47:08;;;;;;;0.30;0.30;;;;;;;-146.19;100.00;65364.44;10389454;28;20425;-63
2022/10/16 14:52:28;;;;;;;0.35;0.30;;;;;;;-146.19;100.00;65364.44;10373244;28;20050;-62
2022/10/16 14:57:47;;;;;;;0.30;0.30;;;;;;;-146.19;100.00;65364.44;10379830;28;20522;-62
2022/10/16 15:03:07;;;;;;;0.40;0.40;;;;;;;-146.19;100.00;65364.44;10373855;28;20116;-63
2022/10/16 15:08:26;;;;;;;0.40;0.40;;;;;;;-146.19;100.00;65364.44;10377870;28;20504;-61
2022/10/16 15:13:46;;;;;;;0.30;0.30;;;;;;;-146.19;100.00;65364.44;10388346;28;20413;-62
2022/10/16 15:19:05;;;;;;;0.35;0.35;;;;;;;-146.19;100.00;65364.44;10388191;28;20429;-62
2022/10/16 15:24:25;;;;;;;0.35;0.35;;;;;;;-146.19;100.00;65364.44;10395883;28;20053;-63
2022/10/16 15:29:44;;;;;;;0.30;0.30;;;;;;;-146.19;100.00;65364.44;10387919;28;20049;-62
2022/10/16 15:35:03;;;;;;;0.40;0.40;;;;;;;-146.19;100.00;65364.44;10387591;28;20129;-62
2022/10/16 15:40:23;;;;;;;0.30;0.30;;;;;;;-146.19;100.00;65364.44;10384885;28;20046;-61
2022/10/16 15:45:43;;;;;;;0.40;0.40;;;;;;;-146.19;100.00;65364.44;10381229;28;20056;-61
2022/10/16 15:51:06;;;;;;;0.30;0.30;;;;;;;-146.19;100.00;65364.44;10391804;28;20409;-62
2022/10/16 15:56:26;;;;;;;0.32;0.32;;;;;;;-146.19;100.00;65364.44;10388025;28;20046;-62
2022/10/16 16:01:45;;;;;;;0.32;0.32;;;;;;;-146.19;100.00;65364.44;10374971;28;20190;-62
2022/10/16 16:07:07;;;;;;;0.30;0.30;;;;;;;-146.19;100.00;65364.44;10381472;28;20057;-62
2022/10/16 16:12:26;;;;;;;0.30;0.30;;;;;;;-146.19;100.00;65364.44;10386433;28;20038;-63
2022/10/16 16:17:46;;;;;;;0.70;0.30;;;;;;;-146.19;100.00;65364.44;10386149;28;20100;-62
2022/10/16 16:23:06;;;;;;;0.38;0.38;;;;;;;-146.19;100.00;65364.44;10386422;28;20042;-63
2022/10/16 16:28:25;;;;;;;0.30;0.30;;;;;;;-146.19;100.00;65364.44;10385785;28;20045;-62
2022/10/16 16:33:45;;;;;;;0.40;0.40;;;;;;;-146.19;100.00;65364.44;10389260;28;20045;-62
2022/10/16 16:39:05;;;;;;;0.40;0.40;;;;;;;-146.19;100.00;65364.44;10371872;28;20061;-62
2022/10/16 16:44:25;;;;;;;0.30;0.30;;;;;;;-146.19;100.00;65364.44;10372804;28;20423;-62
2022/10/16 16:49:46;;;;;;;0.32;0.32;;;;;;;-146.19;100.00;65364.44;10370860;28;20516;-62
2022/10/16 16:55:06;;;;;;;0.30;0.30;;;;;;;-146.19;100.00;65364.44;10384735;28;20057;-63
2022/10/16 17:00:26;;;;;;;0.30;0.30;;;;;;;-146.19;100.00;65364.44;10365863;28;20468;-62
2022/10/16 17:05:58;;;;;;;0.35;0.35;;;;;;;-146.19;100.00;65364.44;10356794;28;20046;-63
2022/10/16 17:11:20;;;;;;;0.32;0.32;;;;;;;-146.19;100.00;65364.44;10372622;28;20429;-63
2022/10/16 17:16:43;;;;;;;0.40;0.40;;;;;;;-146.19;100.00;65364.44;10384405;28;20050;-63
2022/10/16 17:22:03;;;;;;;0.40;0.40;;;;;;;-146.19;100.00;65364.44;10385076;28;20405;-63
2022/10/16 17:27:22;;;;;;;0.30;0.30;;;;;;;-146.19;100.00;65364.44;10389293;28;20046;-62
2022/10/16 17:32:41;;;;;;;0.40;0.40;;;;;;;-146.19;100.00;65364.44;10396396;28;20045;-62
2022/10/16 17:38:01;;;;;;;0.40;0.40;;;;;;;-146.19;100.00;65364.44;10387788;28;20038;-63
2022/10/16 17:43:20;;;;;;;0.30;0.30;;;;;;;-146.19;100.00;65364.44;10385588;28;20050;-63
2022/10/16 17:48:42;;;;;;;0.30;0.30;;;;;;;-146.19;100.00;65364.44;10390490;28;20058;-63
2022/10/16 17:54:02;;;;;;;0.30;0.30;;;;;;;-146.19;100.00;65364.44;10382560;28;20125;-63
2022/10/16 17:59:22;;;;;;;0.30;0.30;;;;;;;-146.19;100.00;65364.44;10380451;28;20050;-63
2022/10/16 18:04:42;;;;;;;0.40;0.40;;;;;;;-146.19;100.00;65364.44;10386853;28;20050;-62
2022/10/16 18:10:05;;;;;;;0.40;0.40;;;;;;;-146.19;100.00;65364.44;10355977;28;20042;-64
2022/10/16 18:15:25;;;;;;;2.17;0.70;;;;;;;-146.19;100.00;65364.44;10384166;28;20061;-64
2022/10/16 18:20:45;;;;;;;1.13;0.80;;;;;;;-146.19;100.00;65364.44;10391458;28;20046;-63
2022/10/16 18:26:06;;;;;;;2.03;0.90;;;;;;;-146.19;100.00;65364.44;10389249;28;20103;-63
2022/10/16 18:31:25;;;;;;;1.48;0.80;;;;;;;-146.19;100.00;65364.44;10376561;28;20136;-60
2022/10/16 18:36:45;;;;;;;1.50;0.80;;;;;;;-146.19;100.00;65364.44;10376832;28;20156;-61
2022/10/16 18:42:04;;;;;;;1.55;0.90;;;;;;;-146.19;100.00;65364.44;10389842;28;20045;-62
2022/10/16 18:47:24;;;;;;;1.60;0.90;;;;;;;-146.19;100.00;65364.44;10389419;28;20374;-59
2022/10/16 18:52:47;;;;;;;3.90;1.00;;;;;;;-146.19;100.00;65364.44;10371931;28;20088;-60
2022/10/16 18:58:07;;;;;;;2.88;1.10;;;;;;;-146.19;100.00;65364.44;10361176;28;20100;-62
2022/10/16 19:03:27;;;;;;;5.35;0.95;;;;;;;-146.19;100.00;65364.44;10389555;28;20053;-61
2022/10/16 19:08:46;;;;;;;2.78;0.90;;;;;;;-146.19;100.00;65364.44;10387579;28;20514;-60
2022/10/16 19:14:05;;;;;;;5.35;1.15;;;;;;;-146.19;100.00;65364.44;10372201;28;20046;-62
2022/10/16 19:19:25;;;;;;;2.13;1.20;;;;;;;-146.19;100.00;65364.44;10387347;28;20042;-62
2022/10/16 19:24:45;;;;;;;6.15;1.20;;;;;;;-146.19;100.00;65364.44;10388337;28;20038;-61
2022/10/16 19:30:05;;;;;;;3.35;1.08;;;;;;;-146.19;100.00;65364.44;10365763;28;20065;-64
2022/10/16 19:35:25;;;;;;;4.57;1.10;;;;;;;-146.19;100.00;65364.44;10367705;28;20050;-61
2022/10/16 19:40:45;;;;;;;3.08;1.00;;;;;;;-146.19;100.00;65364.44;10364033;28;20519;-65
2022/10/16 19:46:07;;;;;;;4.07;1.10;;;;;;;-146.19;100.00;65364.44;10358441;28;20046;-66
2022/10/16 19:51:28;;;;;;;2.05;1.00;;;;;;;-146.19;100.00;65364.44;10354731;28;20509;-65
2022/10/16 19:56:48;;;;;;;3.67;1.10;;;;;;;-146.19;100.00;65364.44;10385777;28;20042;-63
2022/10/16 20:02:09;;;;;;;4.20;1.00;;;;;;;-146.19;100.00;65364.44;10377207;28;21115;-63
2022/10/16 20:07:28;;;;;;;3.28;1.00;;;;;;;-146.19;100.00;65364.44;10354156;28;20041;-64
2022/10/16 20:12:48;;;;;;;2.35;1.00;;;;;;;-146.19;100.00;65364.44;10386337;28;20046;-63
2022/10/16 20:18:07;;;;;;;2.10;1.13;;;;;;;-146.19;100.00;65364.44;10398696;28;20045;-63
2022/10/16 20:23:27;;;;;;;1.73;0.90;;;;;;;-146.19;100.00;65364.44;10386339;28;20133;-61
2022/10/16 20:28:47;;;;;;;2.10;0.77;;;;;;;-146.19;100.00;65364.44;10364540;28;20517;-65
2022/10/16 20:34:09;;;;;;;2.65;1.20;;;;;;;-146.19;100.00;65364.44;10392328;28;20096;-65
2022/10/16 20:39:29;;;;;;;1.35;1.08;;;;;;;-146.19;100.00;65364.44;10385464;28;20445;-62
2022/10/16 20:44:48;;;;;;;3.75;1.23;;;;;;;-146.19;100.00;65364.44;10364993;28;20042;-63
2022/10/16 20:50:08;;;;;;;2.92;1.10;;;;;;;-146.19;100.00;65364.44;10362380;28;20042;-64
2022/10/16 20:55:27;;;;;;;1.70;1.10;;;;;;;-146.19;100.00;65364.44;10360010;28;20485;-62
2022/10/16 21:00:47;;;;;;;3.20;1.33;;;;;;;-146.19;100.00;65364.44;10384154;28;20072;-63
2022/10/16 21:06:08;;;;;;;2.67;0.93;;;;;;;-146.19;100.00;65364.44;10393583;28;20053;-62
2022/10/16 21:11:30;;;;;;;2.20;1.08;;;;;;;-146.19;100.00;65364.44;10382915;28;20405;-62
2022/10/16 21:16:49;;;;;;;1.75;1.10;;;;;;;-146.19;100.00;65364.44;10400579;28;20033;-61
2022/10/16 21:22:09;;;;;;;1.85;1.10;;;;;;;-146.19;100.00;65364.44;10389847;28;20042;-62
2022/10/16 21:27:28;;;;;;;3.08;1.00;;;;;;;-146.19;100.00;65364.44;10367696;28;20068;-62
2022/10/16 21:32:48;;;;;;;2.15;1.10;;;;;;;-146.19;100.00;65364.44;10394951;28;20401;-62
2022/10/16 21:38:07;;;;;;;2.40;1.10;;;;;;;-146.19;100.00;65364.44;10392295;28;20095;-62
2022/10/16 21:43:27;;;;;;;1.50;0.90;;;;;;;-146.19;100.00;65364.44;10383668;28;20048;-61
2022/10/16 21:48:46;;;;;;;3.13;0.90;;;;;;;-146.19;100.00;65364.44;10398979;28;20057;-62
2022/10/16 21:54:08;;;;;;;2.00;1.00;;;;;;;-146.19;100.00;65364.44;10391414;28;20460;-63
2022/10/16 21:59:28;;;;;;;2.25;0.88;;;;;;;-146.19;100.00;65364.44;10382177;28;20526;-64
2022/10/16 22:04:47;;;;;;;1.48;1.10;;;;;;;-146.19;100.00;65364.44;10391260;28;20038;-63
2022/10/16 22:10:07;;;;;;;2.08;1.00;;;;;;;-146.19;100.00;65364.44;10370501;28;20092;-63
2022/10/16 22:15:26;;;;;;;1.50;0.98;;;;;;;-146.19;100.00;65364.44;10350736;28;20072;-63
2022/10/16 22:20:46;;;;;;;2.35;1.05;;;;;;;-146.19;100.00;65364.44;10345811;28;20054;-63
2022/10/16 22:26:08;;;;;;;1.65;1.00;;;;;;;-146.19;100.00;65364.44;10360165;28;20405;-62
2022/10/16 22:31:27;;;;;;;2.15;0.90;;;;;;;-146.19;100.00;65364.44;10394476;28;20038;-63
2022/10/16 22:36:48;;;;;;;1.67;1.00;;;;;;;-146.19;100.00;65364.44;10390104;28;20100;-63
2022/10/16 22:42:08;;;;;;;2.38;1.27;;;;;;;-146.19;100.00;65364.44;10390414;28;20100;-63
2022/10/16 22:47:27;;;;;;;1.08;1.00;;;;;;;-146.19;100.00;65364.44;10394038;28;20145;-63
2022/10/16 22:52:47;;;;;;;1.27;0.95;;;;;;;-146.19;100.00;65364.44;10346900;28;20054;-63
2022/10/16 22:58:06;;;;;;;1.48;1.15;;;;;;;-146.19;100.00;65364.44;10373723;28;20050;-63
2022/10/16 23:03:25;;;;;;;1.23;1.10;;;;;;;-146.19;100.00;65364.44;10388696;28;20041;-61
2022/10/16 23:08:50;;;;;;;1.00;0.90;;;;;;;-146.19;100.00;65364.44;10388649;28;20054;-63
2022/10/16 23:14:09;;;;;;;1.58;1.17;;;;;;;-146.19;100.00;65364.44;10391251;28;20037;-63
2022/10/16 23:19:29;;;;;;;2.17;1.10;;;;;;;-146.19;100.00;65364.44;10376128;28;20050;-63
2022/10/16 23:24:48;;;;;;;1.70;1.00;;;;;;;-146.19;100.00;65364.44;10386989;28;20049;-63
2022/10/16 23:30:08;;;;;;;1.20;0.90;;;;;;;-146.19;100.00;65364.44;10390322;28;20045;-63
2022/10/16 23:35:27;;;;;;;2.20;0.90;;;;;;;-146.19;100.00;65364.44;10387573;28;20046;-61
2022/10/16 23:40:46;;;;;;;1.25;0.95;;;;;;;-146.19;100.00;65364.44;10387642;28;20053;-60
2022/10/16 23:46:07;;;;;;;1.58;0.98;;;;;;;-146.19;100.00;65364.44;10395207;28;20497;-63
2022/10/16 23:51:26;;;;;;;1.08;0.98;;;;;;;-146.19;100.00;65364.44;10387110;28;20044;-63
2022/10/16 23:56:45;;;;;;;1.17;1.08;;;;;;;-146.19;100.00;65364.44;10391308;28;20516;-63
